Time;durP1;ratioP1;P1;durP2;ratioP2;P2;SDS_P1;SDS_P2;PMS_P1;PMS_P2;Temp;Humidity;BMP_temperature;BMP_pressure;BME280_temperature;BME280_humidity;BME280_pressure;Samples;Min_cycle;Max_cycle;Signal;HPM_P1;HPM_P2
2023/07/29 00:00:27;;;;;;;;;;;;;;;16.94;86.90;98641.94;6276522;22;20308;-94
2023/07/29 00:02:53;;;;;;;;;;;;;;;16.95;87.40;98635.25;6277513;22;19927;-93
2023/07/29 00:05:19;;;;;;;;;;;;;;;16.98;87.65;98637.28;6261584;22;20001;-90
2023/07/29 00:07:45;;;;;;;;;;;;;;;16.94;87.05;98636.44;6195679;23;19920;-88
2023/07/29 00:10:31;;;;;;;;;;;;;;;16.88;87.16;98646.97;6253177;23;19930;-90
2023/07/29 00:12:58;;;;;;;;;;;;;;;16.94;87.04;98649.44;6228834;23;19947;-93
2023/07/29 00:15:53;;;;;;;;;;;;;;;16.92;87.06;98658.09;6224311;23;20006;-90
2023/07/29 01:49:05;;;;;;;;;;;;;;;16.57;86.94;98592.09;6066982;23;20295;-87
2023/07/29 02:27:12;;;;;;;;;;;;;;;16.61;85.79;98632.34;6309693;22;19992;-90
2023/07/29 03:28:34;;;;;;;26.02;14.13;;;;;;;16.86;87.89;98576.78;5151579;27;20816;-93
2023/07/29 03:31:00;;;;;;;25.75;13.55;;;;;;;16.85;87.49;98558.59;5116332;27;20039;-92
2023/07/29 03:33:26;;;;;;;23.60;12.55;;;;;;;16.68;87.43;98538.63;5116145;27;20088;-91
2023/07/29 03:35:53;;;;;;;26.83;11.85;;;;;;;16.82;87.15;98570.38;5131600;27;20403;-91
2023/07/29 03:38:19;;;;;;;24.70;11.63;;;;;;;16.70;87.17;98554.81;5129283;28;20031;-90
2023/07/29 03:40:45;;;;;;;22.50;12.30;;;;;;;16.64;87.27;98565.38;5112680;28;20047;-91
2023/07/29 03:43:11;;;;;;;26.17;10.93;;;;;;;16.52;87.11;98545.47;5121271;27;20411;-92
2023/07/29 03:45:39;;;;;;;21.50;11.43;;;;;;;16.56;87.21;98568.41;5114799;28;20043;-96
2023/07/29 03:48:05;;;;;;;23.02;11.93;;;;;;;16.39;86.97;98540.19;5143054;27;20046;-94
2023/07/29 03:50:35;;;;;;;25.63;11.27;;;;;;;16.61;87.43;98526.69;5152803;27;20035;-91
2023/07/29 03:53:01;;;;;;;24.45;9.13;;;;;;;17.34;85.46;98549.38;5132442;27;20280;-91
2023/07/29 03:55:29;;;;;;;24.65;10.57;;;;;;;17.33;83.16;98517.41;5115589;27;20050;-91
2023/07/29 03:57:57;;;;;;;15.27;9.23;;;;;;;17.58;80.18;98550.81;5112773;27;20034;-93
2023/07/29 04:00:23;;;;;;;23.13;9.98;;;;;;;17.63;81.41;98555.22;5095416;28;20035;-91
2023/07/29 04:02:50;;;;;;;19.50;9.55;;;;;;;17.36;80.67;98489.03;5107472;27;20034;-93
2023/07/29 04:05:17;;;;;;;17.95;8.80;;;;;;;17.49;81.53;98515.22;5132750;27;20061;-91
2023/07/29 04:07:43;;;;;;;20.25;8.75;;;;;;;17.59;80.00;98533.88;5132401;27;20039;-90
2023/07/29 04:10:10;;;;;;;15.27;8.93;;;;;;;17.53;79.69;98529.06;5115580;27;20039;-93
2023/07/29 04:12:36;;;;;;;21.65;9.50;;;;;;;17.20;82.12;98505.81;5103973;28;20281;-90
2023/07/29 04:15:03;;;;;;;17.45;9.80;;;;;;;17.61;80.80;98542.59;5095508;28;20478;-90
2023/07/29 04:17:29;;;;;;;18.95;8.27;;;;;;;17.59;80.85;98552.44;5132767;27;20043;-91
2023/07/29 04:19:55;;;;;;;19.73;9.17;;;;;;;17.65;80.92;98539.88;5133139;27;20037;-91
2023/07/29 04:22:25;;;;;;;17.27;8.60;;;;;;;17.63;79.82;98488.91;5132957;27;20411;-92
2023/07/29 04:24:51;;;;;;;15.47;7.73;;;;;;;18.09;79.54;98514.22;5150230;27;20035;-92
2023/07/29 04:27:17;;;;;;;12.47;7.67;;;;;;;18.26;76.57;98521.06;5117345;27;20050;-90
2023/07/29 04:29:43;;;;;;;12.90;8.20;;;;;;;18.31;77.28;98521.50;5120048;27;20070;-89
2023/07/29 04:32:09;;;;;;;16.90;8.88;;;;;;;18.08;77.19;98494.06;5136424;27;20323;-92
2023/07/29 04:34:35;;;;;;;22.23;8.10;;;;;;;18.29;77.52;98473.28;5142162;27;20095;-93
2023/07/29 04:37:01;;;;;;;;;;;;;;;18.97;76.22;98526.28;5103681;27;20127;-93
2023/07/29 04:39:27;;;;;;;19.17;8.38;;;;;;;18.35;74.50;98487.53;5098881;28;19954;-92
2023/07/29 04:41:53;;;;;;;18.23;9.13;;;;;;;18.38;75.57;98520.78;5133990;27;20085;-93
2023/07/29 04:44:20;;;;;;;22.27;8.70;;;;;;;18.26;76.44;98507.25;5118003;28;20061;-93
2023/07/29 04:46:46;;;;;;;19.10;8.77;;;;;;;18.10;76.53;98515.00;5116367;28;20035;-89
2023/07/29 04:49:12;;;;;;;18.73;8.93;;;;;;;17.49;77.98;98484.81;5114345;28;20042;-90
2023/07/29 04:51:38;;;;;;;18.70;8.73;;;;;;;17.19;79.22;98467.53;5097825;28;20023;-89
2023/07/29 04:54:04;;;;;;;18.03;8.93;;;;;;;17.26;79.07;98473.91;5097989;28;20071;-94
2023/07/29 04:56:30;;;;;;;14.98;7.95;;;;;;;17.14;78.25;98479.69;5085540;27;20130;-93
2023/07/29 04:58:56;;;;;;;15.63;8.23;;;;;;;17.72;79.45;98515.06;5135402;27;20067;-92
2023/07/29 05:01:22;;;;;;;19.02;8.77;;;;;;;17.50;78.49;98486.41;5117769;27;20315;-88
2023/07/29 05:03:48;;;;;;;21.07;8.63;;;;;;;17.44;78.20;98476.84;5101046;27;20039;-91
2023/07/29 05:06:14;;;;;;;15.47;7.33;;;;;;;17.77;80.34;98498.13;5135059;27;20181;-90
2023/07/29 05:08:40;;;;;;;17.70;8.27;;;;;;;17.44;78.79;98456.72;5117568;27;20118;-89
2023/07/29 05:11:07;;;;;;;14.30;8.75;;;;;;;17.60;79.40;98494.00;5134639;27;20046;-90
2023/07/29 05:13:34;;;;;;;15.55;7.57;;;;;;;17.58;79.61;98456.84;5119847;27;20039;-90
2023/07/29 05:26:41;;;;;;;14.88;9.68;;;;;;;17.65;78.60;98508.63;4996987;28;20098;-86
2023/07/29 05:29:07;;;;;;;19.65;10.05;;;;;;;17.51;79.50;98515.59;4978547;28;20117;-86
2023/07/29 05:31:33;;;;;;;23.15;9.70;;;;;;;17.64;79.34;98498.78;4981121;28;20666;-86
2023/07/29 05:33:59;;;;;;;15.13;9.20;;;;;;;17.53;78.58;98491.16;4979384;28;20073;-88
2023/07/29 05:36:25;;;;;;;18.77;9.43;;;;;;;17.82;79.67;98510.84;4981389;28;20034;-86
2023/07/29 05:38:52;;;;;;;20.67;10.70;;;;;;;17.54;79.33;98491.97;4998181;28;20042;-86
2023/07/29 05:41:18;;;;;;;19.77;8.93;;;;;;;17.91;79.17;98524.31;4963021;28;20150;-88
2023/07/29 05:43:45;;;;;;;23.75;9.48;;;;;;;17.81;77.52;98531.34;4966076;28;20157;-88
2023/07/29 05:46:11;;;;;;;19.90;9.27;;;;;;;17.80;78.66;98522.25;4995283;28;20065;-86
2023/07/29 05:48:38;;;;;;;18.53;8.90;;;;;;;17.82;78.69;98508.06;4976250;28;20081;-88
2023/07/29 05:51:07;;;;;;;17.27;8.02;;;;;;;17.97;78.68;98528.34;4993654;28;20045;-87
2023/07/29 05:53:34;;;;;;;21.45;9.13;;;;;;;18.03;77.75;98541.44;4977155;28;20049;-87
2023/07/29 05:56:00;;;;;;;12.63;8.43;;;;;;;18.12;76.51;98512.66;4976639;28;20411;-87
2023/07/29 05:58:26;;;;;;;13.87;7.83;;;;;;;18.01;77.12;98513.38;4995045;28;20171;-87
2023/07/29 06:00:53;;;;;;;20.02;9.55;;;;;;;17.82;76.79;98521.88;4976868;28;20034;-87
2023/07/29 06:03:19;;;;;;;;;;;;;;;18.28;79.01;98543.63;4961963;28;20058;-88
2023/07/29 06:05:45;;;;;;;27.37;10.20;;;;;;;18.29;76.45;98514.78;4976619;28;20021;-89
2023/07/29 06:08:11;;;;;;;20.10;9.13;;;;;;;17.93;77.61;98506.19;4977636;28;20053;-87
2023/07/29 06:10:37;;;;;;;20.27;9.20;;;;;;;18.07;78.06;98522.88;4957817;28;20039;-87
2023/07/29 06:13:03;;;;;;;30.10;9.73;;;;;;;18.04;76.91;98536.69;4974349;28;20457;-88
2023/07/29 06:15:29;;;;;;;22.60;9.02;;;;;;;18.32;78.73;98558.28;4964309;28;20503;-87
2023/07/29 06:17:55;;;;;;;16.03;9.60;;;;;;;17.99;78.47;98559.19;4976028;28;20061;-88
2023/07/29 06:20:21;;;;;;;26.60;10.80;;;;;;;17.60;79.21;98551.25;4980245;28;20498;-89
2023/07/29 06:22:47;;;;;;;15.57;9.10;;;;;;;17.71;79.87;98560.44;4976566;28;20030;-88
2023/07/29 06:25:13;;;;;;;15.53;10.03;;;;;;;17.66;79.66;98562.75;4990303;28;20056;-88
2023/07/29 06:27:39;;;;;;;14.18;8.95;;;;;;;17.81;80.37;98581.91;4977315;28;20458;-92
2023/07/29 06:30:06;;;;;;;26.23;10.10;;;;;;;18.00;80.02;98582.88;4941179;28;20555;-94
2023/07/29 06:32:32;;;;;;;22.73;9.57;;;;;;;18.01;77.86;98588.03;4945282;28;20045;-93
2023/07/29 06:34:58;;;;;;;18.07;10.40;;;;;;;17.78;78.78;98587.38;4976813;28;20038;-92
2023/07/29 06:37:24;;;;;;;21.07;10.57;;;;;;;17.34;81.20;98547.41;4944207;28;20036;-91
2023/07/29 06:39:50;;;;;;;24.35;10.27;;;;;;;17.76;79.87;98573.97;4994038;28;20034;-93
2023/07/29 06:42:16;;;;;;;21.23;10.67;;;;;;;17.64;80.22;98563.13;4975026;28;20101;-90
2023/07/29 06:44:42;;;;;;;18.87;10.03;;;;;;;17.67;80.97;98572.63;4993428;28;20093;-88
2023/07/29 06:47:07;;;;;;;14.73;9.10;;;;;;;17.55;81.19;98555.16;4975841;28;20066;-90
2023/07/29 06:49:33;;;;;;;19.35;7.78;;;;;;;17.73;81.81;98551.78;4992977;28;20050;-89
2023/07/29 06:51:59;;;;;;;16.73;9.15;;;;;;;17.81;80.45;98565.34;4975796;28;20038;-90
2023/07/29 06:54:26;;;;;;;10.57;7.13;;;;;;;17.90;80.17;98555.91;4994423;28;20415;-92
2023/07/29 06:56:54;;;;;;;25.77;7.78;;;;;;;18.16;79.51;98560.50;4978235;28;20046;-93
2023/07/29 06:59:20;;;;;;;13.20;8.73;;;;;;;18.02;78.34;98550.13;4961868;28;20042;-90
2023/07/29 07:01:48;;;;;;;23.83;9.17;;;;;;;17.97;78.92;98572.56;4994162;28;20030;-90
2023/07/29 07:04:14;;;;;;;15.82;8.57;;;;;;;18.13;79.54;98575.88;4993210;28;20304;-89
2023/07/29 07:06:40;;;;;;;15.23;8.30;;;;;;;18.26;77.43;98573.63;4975407;28;20696;-89
2023/07/29 07:09:06;;;;;;;19.37;9.20;;;;;;;18.19;78.97;98555.00;4996491;28;20096;-89
2023/07/29 07:11:34;;;;;;;21.05;9.15;;;;;;;18.25;78.95;98544.38;4963018;28;20807;-89
2023/07/29 07:14:00;;;;;;;17.88;8.57;;;;;;;18.21;77.43;98555.44;4978653;28;20459;-92
2023/07/29 07:16:29;;;;;;;19.17;7.40;;;;;;;18.78;76.74;98580.78;4978618;28;20038;-87
2023/07/29 07:18:59;;;;;;;17.30;7.72;;;;;;;18.78;75.97;98577.22;4963396;28;20581;-92
2023/07/29 07:21:26;;;;;;;20.33;9.10;;;;;;;18.51;76.67;98541.44;4937715;29;20074;-89
2023/07/29 07:23:52;;;;;;;23.00;8.10;;;;;;;18.63;77.74;98545.03;4921514;29;20051;-89
2023/07/29 07:26:44;;;;;;;24.50;9.40;;;;;;;18.83;76.63;98578.81;4955436;29;20059;-89
2023/07/29 07:29:10;;;;;;;17.08;7.88;;;;;;;19.19;76.86;98586.16;4921165;29;20425;-87
2023/07/29 07:31:36;;;;;;;14.13;7.53;;;;;;;19.12;74.02;98579.78;4935840;29;20050;-88
2023/07/29 07:34:02;;;;;;;15.57;8.23;;;;;;;19.10;76.02;98582.13;4936535;29;20039;-85
2023/07/29 07:36:29;;;;;;;17.60;7.03;;;;;;;19.10;75.17;98576.59;4936407;29;20449;-86
2023/07/29 07:38:55;;;;;;;14.90;8.65;;;;;;;18.75;74.69;98544.75;4949884;28;20113;-87
2023/07/29 07:41:22;;;;;;;18.90;8.03;;;;;;;18.77;74.62;98562.59;4971516;28;20070;-89
2023/07/29 07:43:49;;;;;;;20.33;8.63;;;;;;;18.86;75.24;98572.50;4972519;28;20046;-88
2023/07/29 07:46:15;;;;;;;21.70;8.37;;;;;;;18.48;76.89;98563.53;4935976;29;20129;-86
2023/07/29 07:48:41;;;;;;;17.73;7.10;;;;;;;18.74;78.64;98582.75;4900642;29;20062;-85
2023/07/29 07:51:11;;;;;;;13.77;8.27;;;;;;;18.73;76.64;98577.56;4932293;29;20043;-88
2023/07/29 07:53:38;;;;;;;24.15;9.05;;;;;;;18.81;75.83;98597.78;4939234;28;20455;-88
2023/07/29 07:56:05;;;;;;;14.98;8.25;;;;;;;18.67;74.87;98577.09;4909246;28;20050;-89
2023/07/29 07:58:31;;;;;;;17.40;8.43;;;;;;;18.77;75.98;98595.81;4940401;28;20035;-87
2023/07/29 08:01:02;;;;;;;10.77;6.75;;;;;;;18.72;76.20;98579.56;4940475;28;20055;-87
2023/07/29 08:03:28;;;;;;;11.30;6.85;;;;;;;19.07;76.16;98586.47;4976669;28;20049;-90
2023/07/29 08:05:54;;;;;;;31.35;8.45;;;;;;;18.98;74.21;98592.38;4945987;28;20058;-92
2023/07/29 08:08:21;;;;;;;27.23;9.23;;;;;;;18.58;74.76;98601.56;4945640;28;20070;-89
2023/07/29 08:10:49;;;;;;;28.47;10.10;;;;;;;18.71;75.71;98599.28;4970251;28;20088;-90
2023/07/29 08:13:15;;;;;;;16.80;6.80;;;;;;;18.86;77.14;98589.91;4958868;28;20278;-88
2023/07/29 08:15:48;;;;;;;18.50;9.60;;;;;;;18.63;75.54;98559.69;4964165;28;20042;-93
2023/07/29 08:18:14;;;;;;;20.30;9.38;;;;;;;18.68;75.39;98589.78;5001078;28;20045;-92
2023/07/29 08:20:40;;;;;;;21.67;10.90;;;;;;;18.59;76.03;98572.69;4954717;28;20109;-96
2023/07/29 08:23:06;;;;;;;21.70;9.87;;;;;;;18.42;76.74;98607.38;4967425;28;20108;-90
2023/07/29 08:25:32;;;;;;;23.03;10.23;;;;;;;18.43;77.10;98614.50;4943642;29;20796;-92
2023/07/29 08:28:57;;;;;;;16.50;7.80;;;;;;;18.62;77.35;98605.16;4964948;29;20047;-96
2023/07/29 08:31:23;;;;;;;21.85;8.95;;;;;;;18.71;75.33;98579.91;4963095;29;20070;-95
2023/07/29 08:33:49;;;;;;;20.07;9.67;;;;;;;18.31;76.50;98565.00;4961302;29;20590;-92
2023/07/29 08:36:15;;;;;;;20.20;10.43;;;;;;;18.17;78.50;98570.38;4927256;29;20515;-95
2023/07/29 08:38:56;;;;;;;19.30;10.40;;;;;;;17.90;78.64;98573.31;4927620;29;20036;-93
2023/07/29 08:41:47;;;;;;;23.10;10.90;;;;;;;18.14;79.85;98605.13;4961108;28;20039;-91
2023/07/29 08:44:34;;;;;;;26.23;10.90;;;;;;;17.93;80.19;98558.72;4944383;28;20046;-96
2023/07/29 08:47:01;;;;;;;19.20;9.73;;;;;;;18.37;80.71;98616.00;4979178;28;20138;-94
2023/07/29 08:49:28;;;;;;;20.90;9.90;;;;;;;18.39;79.64;98612.88;4979293;28;20070;-94
2023/07/29 08:51:55;;;;;;;18.30;9.90;;;;;;;18.29;80.19;98593.03;4980534;28;20053;-96
2023/07/29 08:54:22;;;;;;;23.98;10.77;;;;;;;18.42;78.84;98563.09;4982351;28;20035;-91
2023/07/29 08:56:49;;;;;;;29.27;9.03;;;;;;;18.65;78.16;98584.22;4946949;28;20062;-94
2023/07/29 08:59:17;;;;;;;14.63;9.15;;;;;;;18.52;77.53;98590.06;4951431;28;20290;-90
2023/07/29 09:01:47;;;;;;;18.60;9.75;;;;;;;18.49;77.47;98615.72;4970536;28;20051;-92
2023/07/29 09:04:19;;;;;;;19.77;10.00;;;;;;;17.81;78.57;98550.69;4929531;28;20045;-93
2023/07/29 09:07:01;;;;;;;19.77;10.98;;;;;;;17.94;80.94;98612.84;4960082;28;20058;-91
2023/07/29 09:09:27;;;;;;;29.55;11.10;;;;;;;17.87;80.25;98614.75;4943802;28;20109;-91
2023/07/29 09:11:54;;;;;;;14.47;9.13;;;;;;;18.02;80.48;98586.88;4961421;28;20594;-92
2023/07/29 09:14:36;;;;;;;19.92;10.30;;;;;;;17.58;80.75;98561.88;4931625;29;20058;-91
2023/07/29 09:17:09;;;;;;;22.00;11.15;;;;;;;17.74;82.51;98592.06;4910692;29;20054;-92
2023/07/29 09:19:36;;;;;;;29.30;11.13;;;;;;;17.81;82.11;98615.09;4940929;29;20047;-92
2023/07/29 09:22:03;;;;;;;27.05;10.77;;;;;;;17.81;82.40;98592.97;4923142;29;20051;-93
2023/07/29 09:24:32;;;;;;;18.38;10.73;;;;;;;17.90;80.87;98594.63;4922007;29;20504;-91
2023/07/29 09:26:58;;;;;;;22.45;10.93;;;;;;;17.83;80.58;98600.88;4935155;29;20586;-89
2023/07/29 09:29:27;;;;;;;24.00;11.47;;;;;;;18.29;81.01;98608.84;4928706;29;20047;-91
2023/07/29 09:31:53;;;;;;;22.80;11.13;;;;;;;18.11;80.39;98603.13;4940466;29;20043;-93
2023/07/29 09:34:42;;;;;;;22.30;11.00;;;;;;;18.16;79.93;98585.41;4926441;29;20056;-94
2023/07/29 09:37:59;;;;;;;22.92;9.90;;;;;;;18.66;79.43;98619.81;4915569;29;20117;-90
2023/07/29 09:40:26;;;;;;;17.25;10.13;;;;;;;18.00;79.79;98578.13;4916763;29;20098;-95
2023/07/29 09:43:02;;;;;;;25.42;11.02;;;;;;;18.04;80.14;98603.06;4889267;29;20039;-89
2023/07/29 09:45:34;;;;;;;15.95;8.75;;;;;;;17.74;81.87;98565.22;4904791;29;20079;-90
2023/07/29 09:48:00;;;;;;;18.67;9.75;;;;;;;17.95;81.90;98616.41;4920399;29;20119;-92
2023/07/29 09:50:31;;;;;;;17.45;10.50;;;;;;;17.87;81.07;98590.66;4906228;29;20073;-92
2023/07/29 09:53:00;;;;;;;13.60;7.22;;;;;;;18.37;81.87;98618.78;5027655;23;20051;-94
2023/07/29 09:55:32;;;;;;;23.88;10.63;;;;;;;17.83;80.30;98584.28;4961544;28;20598;-91
2023/07/29 09:58:37;;;;;;;26.83;11.15;;;;;;;17.70;82.23;98592.03;4980037;28;20047;-91
2023/07/29 10:01:07;;;;;;;23.27;11.38;;;;;;;17.69;82.02;98589.66;4964448;28;20082;-93
2023/07/29 10:03:37;;;;;;;17.92;11.07;;;;;;;17.65;84.34;98621.97;4958397;28;20110;-92
2023/07/29 10:06:05;;;;;;;18.27;11.15;;;;;;;17.55;84.36;98635.28;4955830;29;20070;-91
2023/07/29 10:08:52;;;;;;;13.60;9.45;;;;;;;17.47;84.96;98592.16;4956154;29;20133;-88
2023/07/29 10:11:22;;;;;;;17.45;8.63;;;;;;;17.45;85.32;98590.94;4945890;29;20110;-92
2023/07/29 10:13:48;;;;;;;16.58;9.85;;;;;;;17.55;84.78;98582.00;4956805;29;20039;-92
2023/07/29 10:16:18;;;;;;;15.35;8.98;;;;;;;17.96;83.36;98604.97;4982128;28;20043;-91
2023/07/29 10:18:49;;;;;;;18.85;8.77;;;;;;;17.89;81.75;98624.25;4975698;28;20039;-90
2023/07/29 10:21:16;;;;;;;14.02;8.23;;;;;;;17.76;82.64;98633.94;4944716;28;20134;-92
2023/07/29 10:26:39;;;;;;;;;;;;;;;17.54;82.68;98638.41;4914268;29;20490;-93
2023/07/29 10:29:21;;;;;;;14.43;7.97;;;;;;;17.34;83.28;98597.13;4923688;29;20436;-90
2023/07/29 10:32:01;;;;;;;17.30;9.00;;;;;;;17.35;84.78;98582.16;4922684;29;20048;-91
2023/07/29 10:34:35;;;;;;;16.00;9.82;;;;;;;17.56;82.67;98600.16;4922557;29;20441;-94
2023/07/29 10:37:03;;;;;;;14.18;8.90;;;;;;;17.11;82.89;98577.88;4896765;29;20059;-92
2023/07/29 10:40:19;;;;;;;16.42;9.52;;;;;;;17.32;83.03;98613.28;4892564;29;20147;-93
2023/07/29 10:46:19;;;;;;;14.75;8.85;;;;;;;17.38;84.21;98636.66;4916856;29;20161;-93
2023/07/29 10:49:16;;;;;;;25.92;10.35;;;;;;;17.23;84.40;98643.16;4904142;29;20044;-92
2023/07/29 10:51:44;;;;;;;18.77;8.73;;;;;;;17.46;83.55;98623.72;4908970;29;20056;-92
2023/07/29 10:54:14;;;;;;;19.50;8.68;;;;;;;17.83;81.71;98639.59;4901696;29;20084;-87
2023/07/29 10:56:42;;;;;;;16.63;8.65;;;;;;;17.97;81.36;98625.13;4902983;29;20052;-92
2023/07/29 10:59:12;;;;;;;16.30;7.65;;;;;;;18.07;78.90;98621.66;4950909;29;20047;-94
2023/07/29 11:01:59;;;;;;;15.35;8.27;;;;;;;17.92;78.64;98636.53;4928216;29;20456;-91
2023/07/29 11:04:33;;;;;;;13.20;7.32;;;;;;;18.11;80.42;98630.00;4925811;29;20054;-90
2023/07/29 11:07:03;;;;;;;14.77;7.90;;;;;;;18.33;78.58;98626.25;4937692;29;20042;-84
2023/07/29 11:09:49;;;;;;;32.25;8.23;;;;;;;18.61;79.58;98628.50;4958346;28;20097;-93
2023/07/29 11:12:50;;;;;;;20.95;9.50;;;;;;;18.47;78.54;98618.06;4966130;28;20086;-92
2023/07/29 11:15:53;;;;;;;;;;;;;;;18.35;79.43;98645.25;4975942;28;20105;-91
2023/07/29 11:18:53;;;;;;;24.35;11.30;;;;;;;18.35;79.37;98648.03;4957504;28;19954;-87
2023/07/29 11:21:25;;;;;;;19.75;10.60;;;;;;;18.12;78.90;98642.66;4965920;28;20102;-92
2023/07/29 11:23:54;;;;;;;26.17;11.60;;;;;;;18.00;81.13;98614.09;4953281;28;20035;-90
2023/07/29 11:26:27;;;;;;;18.50;10.05;;;;;;;17.92;79.30;98601.38;4970668;28;20054;-88
2023/07/29 11:28:53;;;;;;;20.00;10.60;;;;;;;18.11;79.03;98627.22;4971495;28;20042;-91
2023/07/29 11:31:20;;;;;;;23.50;10.70;;;;;;;18.21;78.96;98657.78;4971047;28;20039;-87
2023/07/29 11:33:46;;;;;;;24.73;11.18;;;;;;;17.95;79.47;98631.03;4938759;28;20672;-92
2023/07/29 11:36:19;;;;;;;20.35;10.98;;;;;;;17.96;80.47;98660.28;4952428;28;20031;-89
2023/07/29 11:38:47;;;;;;;33.17;12.32;;;;;;;17.71;81.17;98640.59;4939856;28;20538;-89
2023/07/29 11:41:20;;;;;;;27.05;11.65;;;;;;;17.72;82.11;98664.31;4978569;28;20042;-88
2023/07/29 11:43:46;;;;;;;25.60;12.73;;;;;;;17.72;83.37;98672.63;4977073;28;20043;-87
2023/07/29 11:46:12;;;;;;;22.07;11.93;;;;;;;17.58;82.50;98667.72;4939209;29;20429;-88
2023/07/29 11:48:39;;;;;;;26.10;12.27;;;;;;;17.65;81.98;98672.53;4939150;29;20126;-88
2023/07/29 11:51:05;;;;;;;28.33;12.40;;;;;;;17.53;83.56;98670.00;4955861;28;20043;-87
2023/07/29 11:53:31;;;;;;;33.83;12.90;;;;;;;17.63;82.75;98668.53;4974462;28;20054;-87
2023/07/29 11:55:58;;;;;;;23.30;11.70;;;;;;;17.40;81.91;98661.16;4926151;28;20996;-89
2023/07/29 11:58:24;;;;;;;25.30;12.70;;;;;;;17.50;81.69;98660.47;4977679;28;20665;-89
2023/07/29 12:00:51;;;;;;;22.05;11.48;;;;;;;17.67;82.13;98663.84;4990716;28;20431;-87
2023/07/29 12:03:17;;;;;;;;;;;;;;;17.79;81.74;98674.69;4994223;28;20038;-90
2023/07/29 12:05:44;;;;;;;26.00;10.18;;;;;;;17.74;82.95;98681.31;4960658;28;20025;-89
2023/07/29 12:08:11;;;;;;;21.58;10.05;;;;;;;18.12;81.85;98664.78;4993804;28;20484;-87
2023/07/29 12:10:39;;;;;;;15.25;8.98;;;;;;;18.09;80.45;98674.63;4976752;28;20046;-88
2023/07/29 12:13:08;;;;;;;21.30;10.07;;;;;;;17.90;79.55;98666.53;4961093;28;20073;-87
2023/07/29 12:15:34;;;;;;;21.75;10.52;;;;;;;17.73;80.67;98682.50;4960001;28;20081;-87
2023/07/29 12:18:00;;;;;;;23.50;10.53;;;;;;;17.34;81.31;98662.63;4994829;28;20427;-88
2023/07/29 12:20:27;;;;;;;25.65;10.45;;;;;;;17.28;82.22;98672.41;4992723;28;20286;-88
2023/07/29 12:22:55;;;;;;;21.58;11.55;;;;;;;17.25;83.98;98667.63;4975944;28;20040;-87
2023/07/29 12:25:22;;;;;;;21.33;11.25;;;;;;;17.38;82.92;98680.03;4993298;28;20049;-89
2023/07/29 12:27:48;;;;;;;;;;;;;;;17.68;82.73;98670.97;4960279;28;20045;-88
2023/07/29 12:30:13;;;;;;;22.15;10.73;;;;;;;17.65;82.17;98660.66;4993765;28;19917;-89
2023/07/29 12:32:47;;;;;;;26.88;10.15;;;;;;;17.63;82.97;98646.44;4992060;28;20053;-87
2023/07/29 12:35:14;;;;;;;24.70;11.35;;;;;;;17.74;81.00;98661.97;4990091;28;20411;-87
2023/07/29 12:37:43;;;;;;;23.60;11.50;;;;;;;17.91;81.27;98657.84;4942882;28;20043;-88
2023/07/29 12:40:29;;;;;;;29.33;12.20;;;;;;;18.06;80.17;98670.66;4993909;28;20049;-88
2023/07/29 12:42:56;;;;;;;29.55;12.57;;;;;;;18.06;81.25;98665.13;4944427;28;20049;-87
2023/07/29 12:45:26;;;;;;;29.13;12.50;;;;;;;18.18;81.00;98666.03;4993157;28;20527;-89
2023/07/29 12:47:52;;;;;;;24.38;12.45;;;;;;;18.32;80.30;98660.66;4944227;28;20038;-87
2023/07/29 12:50:20;;;;;;;35.15;13.63;;;;;;;18.46;79.51;98665.50;4943842;28;20757;-87
2023/07/29 12:52:46;;;;;;;;;;;;;;;18.41;78.79;98663.09;4948760;28;20077;-89
2023/07/29 12:55:16;;;;;;;21.33;10.32;;;;;;;18.19;78.36;98651.03;4986571;28;20024;-89
2023/07/29 12:57:43;;;;;;;32.95;11.43;;;;;;;18.20;80.43;98633.25;4997336;28;20120;-87
2023/07/29 13:00:10;;;;;;;32.25;11.45;;;;;;;18.52;79.09;98659.25;4960030;28;20052;-87
2023/07/29 13:02:36;;;;;;;;;;;;;;;18.81;78.55;98661.47;4944971;28;20125;-86
2023/07/29 13:05:09;;;;;;;29.05;10.45;;;;;;;18.65;77.09;98657.00;4945044;28;19988;-90
2023/07/29 13:07:35;;;;;;;25.15;10.18;;;;;;;18.65;75.62;98670.81;4959652;28;20066;-89
2023/07/29 13:10:01;;;;;;;24.83;10.53;;;;;;;18.25;75.66;98649.50;4975514;28;20046;-86
2023/07/29 13:12:27;;;;;;;22.65;11.13;;;;;;;18.38;77.28;98667.44;4992863;28;20552;-93
2023/07/29 13:14:53;;;;;;;20.67;11.67;;;;;;;18.41;77.21;98663.91;4976952;28;20173;-89
2023/07/29 13:17:22;;;;;;;35.70;12.52;;;;;;;18.14;77.84;98654.13;4946802;28;20050;-90
2023/07/29 13:19:49;;;;;;;24.13;11.90;;;;;;;18.05;78.66;98633.13;4944192;28;20196;-89
2023/07/29 13:22:15;;;;;;;37.47;13.87;;;;;;;17.90;79.26;98644.41;4993945;28;20045;-89
2023/07/29 13:24:41;;;;;;;34.35;13.80;;;;;;;17.67;79.79;98609.34;4959355;28;20297;-88
2023/07/29 13:27:08;;;;;;;31.45;13.57;;;;;;;17.69;80.48;98647.69;4975395;28;20090;-90
2023/07/29 13:29:46;;;;;;;;;;;;;;;;;;;;;
2023/07/29 13:32:13;;;;;;;22.88;10.35;;;;;;;18.27;81.08;98638.84;4989719;28;20038;-86
2023/07/29 13:34:39;;;;;;;36.17;13.53;;;;;;;18.18;78.93;98610.69;4956428;28;20050;-90
2023/07/29 13:37:06;;;;;;;30.27;13.77;;;;;;;18.40;77.56;98642.13;4938314;28;20061;-85
2023/07/29 13:39:31;;;;;;;31.67;14.80;;;;;;;18.10;78.50;98631.19;4976915;28;20488;-91
2023/07/29 13:41:59;;;;;;;43.63;16.20;;;;;;;18.13;80.98;98644.25;4991955;28;20046;-90
2023/07/29 13:44:26;;;;;;;39.50;16.70;;;;;;;17.99;82.54;98620.81;4974077;28;20046;-91
2023/07/29 13:47:01;;;;;;;32.28;15.40;;;;;;;18.21;80.99;98646.72;4973656;28;20042;-88
2023/07/29 13:49:29;;;;;;;35.25;15.98;;;;;;;18.21;82.15;98641.19;4991496;28;20128;-88
2023/07/29 13:51:55;;;;;;;28.98;14.05;;;;;;;18.07;79.36;98632.72;4972861;28;20101;-90
2023/07/29 13:54:41;;;;;;;36.97;14.30;;;;;;;17.76;79.19;98598.00;4973325;28;20042;-90
2023/07/29 13:57:07;;;;;;;27.88;13.00;;;;;;;17.79;79.50;98611.13;4860812;29;20378;-90
2023/07/29 13:59:33;;;;;;;29.90;11.90;;;;;;;18.10;78.54;98618.13;4875838;29;20970;-89
2023/07/29 14:01:59;;;;;;;21.50;11.32;;;;;;;18.15;77.66;98609.50;4889548;29;20059;-88
2023/07/29 14:04:25;;;;;;;21.10;11.30;;;;;;;18.23;76.99;98624.19;4843876;29;20177;-87
2023/07/29 14:06:51;;;;;;;29.23;11.07;;;;;;;18.26;76.48;98628.97;4874640;29;20048;-88
2023/07/29 14:09:18;;;;;;;32.92;12.48;;;;;;;18.16;77.29;98629.66;4856940;29;20710;-89
2023/07/29 14:11:46;;;;;;;37.70;12.73;;;;;;;18.12;78.79;98629.63;4843747;29;20036;-88
2023/07/29 14:14:14;;;;;;;30.73;10.87;;;;;;;18.35;78.74;98623.91;4857971;29;20059;-85
2023/07/29 14:16:41;;;;;;;23.27;10.43;;;;;;;18.34;74.66;98597.41;4843548;29;20076;-87
2023/07/29 14:19:07;;;;;;;18.00;8.10;;;;;;;18.38;73.82;98583.63;4873312;29;20508;-88
2023/07/29 14:21:33;;;;;;;15.38;8.60;;;;;;;18.48;73.15;98622.44;4888856;29;20049;-88
2023/07/29 14:24:00;;;;;;;34.45;11.20;;;;;;;18.65;74.44;98631.28;4871991;29;20048;-86
2023/07/29 14:26:26;;;;;;;25.55;11.77;;;;;;;18.75;74.02;98627.81;4873646;29;20053;-87
2023/07/29 14:28:58;;;;;;;30.85;10.80;;;;;;;18.79;73.38;98639.72;4888260;29;20061;-86
2023/07/29 14:31:24;;;;;;;21.67;9.07;;;;;;;18.85;72.49;98629.09;4857429;29;20541;-88
2023/07/29 14:33:50;;;;;;;17.40;8.10;;;;;;;19.12;71.99;98630.44;4904668;28;20058;-87
2023/07/29 14:36:16;;;;;;;19.92;8.57;;;;;;;18.95;70.75;98615.31;4934362;28;20038;-87
2023/07/29 14:38:42;;;;;;;17.83;7.95;;;;;;;18.95;70.47;98626.38;4952596;28;20089;-88
2023/07/29 14:41:10;;;;;;;17.23;8.10;;;;;;;18.72;70.18;98603.69;4933155;28;20034;-88
2023/07/29 14:43:40;;;;;;;20.10;7.85;;;;;;;18.77;70.67;98628.22;4957917;28;20073;-88
2023/07/29 14:46:06;;;;;;;18.10;7.25;;;;;;;18.69;71.81;98640.41;4936354;28;20035;-87
2023/07/29 14:48:32;;;;;;;27.02;8.65;;;;;;;18.64;71.66;98624.13;4984386;28;20137;-88
2023/07/29 14:50:59;;;;;;;20.88;7.55;;;;;;;18.74;69.43;98635.34;4951783;28;20662;-87
2023/07/29 14:53:26;;;;;;;19.08;8.30;;;;;;;18.84;71.08;98610.84;4984829;28;20065;-85
2023/07/29 14:55:54;;;;;;;22.33;8.25;;;;;;;19.27;68.67;98628.56;4967598;28;20040;-84
2023/07/29 14:58:20;;;;;;;29.17;8.73;;;;;;;18.87;68.99;98615.63;4933823;28;20046;-86